Thursday, January 17, 2019, 6:01 AM EST
Back to Local

KIJD, Willimantic Windham Airport

Location: North Windham, CT, United States Lat: 41.75
Local Time: 6:01 AM EST (11:01 GMT) Lon: -72.183
Time Zone: US/Eastern Elev: 246 ft

Show me the last for .
Show Coded

Time T Td Feel RH Dir Speed Gust Alt SLP Vis Weather Sky Remarks
2019-01-17 04:52 22 7 7 51 340° 10 18 30.30 30.31 10 CLR None
2019-01-17 03:52 23 9 9 54 350° 6 18 30.29 30.29 10 CLR None
2019-01-17 02:52 25 12 18 57 320° 6 - 30.27 30.27 10 CLR None
2019-01-17 01:52 26 13 18 56 320° 7 - 30.24 30.24 10 CLR None
2019-01-17 00:52 27 13 19 54 310° 8 - 30.20 30.21 10 CLR 6-hr Min Temp (1am): 27.0°F
6-hr Max Temp (1am): 36.0°F
2019-01-16 23:52 29 13 17 50 300° 10 17 30.19 30.20 10 CLR 24-hr Min Temp (12am): 12.9°F
24-hr Max Temp (12am): 37.0°F
2019-01-16 22:52 30 12 18 46 320° 10 20 30.16 30.16 10 CLR Peak wind: 32 mph (28 kts) from 280° at 30 min
2019-01-16 21:52 32 16 20 51 320° 13 21 30.13 30.14 10 CLR None
2019-01-16 20:52 35 22 23 58 310° 13 23 30.09 30.09 10 FEW047 BKN055 None
2019-01-16 19:52 34 22 31 60 230° 3 - 30.05 30.06 10 OVC055 None
2019-01-16 18:52 35 22 30 58 200° 6 - 30.03 30.04 10 OVC060 6-hr Min Temp (7pm): 33.1°F
6-hr Max Temp (7pm): 37.0°F
2019-01-16 17:52 35 22 31 58 230° 5 - 30.01 30.02 10 OVC060 None
2019-01-16 16:52 34 22 30 60 270° 5 - 30.00 30.00 10 CLR None
2019-01-16 15:52 36 23 29 58 280° 9 - 29.98 29.99 10 FEW046 None
2019-01-16 14:52 37 24 32 59 270° 7 - 29.97 29.98 10 BKN041 None
2019-01-16 13:52 36 24 28 61 230° 10 - 29.96 29.97 10 SCT043 None
2019-01-16 12:52 34 24 27 66 230° 8 - 29.97 29.98 10 BKN042 6-hr Min Temp (1pm): 12.9°F
6-hr Max Temp (1pm): 34.0°F
2019-01-16 11:52 32 23 25 68 240° 8 - 29.99 30.00 10 OVC036 None
2019-01-16 10:52 32 24 26 72 260° 6 - 30.02 30.02 10 OVC035 None
2019-01-16 09:52 26 22 - 84 - Calm - 30.02 30.03 6 BR OVC031 None
2019-01-16 08:52 19 16 - 87 - Calm - 30.01 30.02 7 CLR None
2019-01-16 07:52 14 13 - 95 - Calm - 30.02 30.03 7 CLR None
2019-01-16 06:52 13 11 - 91 - Calm - 30.03 30.03 9 FEW065 6-hr Min Temp (7am): 12.9°F
6-hr Max Temp (7am): 17.1°F

Support USWX by starting your Amazon purchase here.